^^
Grace C. Lehan Memorial Weather Station Historical Data
Daily Summary for August 02, 2022 Units:  Metric    English   Both
Daily Weekly Monthly Yearly
  High: Low: Average:
Temperature: 28.2 °C 20.1 °C 21.4 °C
Dew Point: 23.2 °C 19.1 °C 20.1 °C
Humidity: 95% 73.6% 92%
Wind Speed: 0km/h 0km/h 0km/h
Wind Gust: 3.2km/h - -
Wind- -
Pressure: 1009.4 hPa 1008 hPa -
Precipitation: 0 mm    
 
 
Tabular Data for August 02, 2022
Time Temperature Dew Point Pressure Wind Wind Speed Wind Gust Humidity Rainfall Rate (Hourly) solar
00:00 21 °C 19.7 °C 1009.4 hPa Calm     92% 0 mm 0 W/m2
00:09 20.9 °C 19.6 °C 1009.4 hPa Calm     92% 0 mm 0 W/m2
00:14 20.8 °C 19.6 °C 1009.4 hPa Calm     92.5% 0 mm 0 W/m2
00:19 20.8 °C 19.7 °C 1009.4 hPa Calm     93% 0 mm 0 W/m2
00:24 20.8 °C 19.6 °C 1009.4 hPa Calm     93% 0 mm 0 W/m2
00:29 20.8 °C 19.6 °C 1009.4 hPa Calm     93% 0 mm 0 W/m2
00:34 20.7 °C 19.6 °C 1009.4 hPa Calm     93% 0 mm 0 W/m2
00:39 20.7 °C 19.5 °C 1009.4 hPa Calm     93% 0 mm 0 W/m2
00:44 20.7 °C 19.5 °C 1009 hPa Calm     93% 0 mm 0 W/m2
00:49 20.7 °C 19.5 °C 1009 hPa Calm     93% 0 mm 0 W/m2
00:54 20.6 °C 19.4 °C 1009 hPa Calm     93% 0 mm 0 W/m2
00:59 20.6 °C 19.4 °C 1009 hPa Calm     93% 0 mm 0 W/m2
01:04 20.6 °C 19.4 °C 1009 hPa Calm     93% 0 mm 0 W/m2
01:09 20.5 °C 19.3 °C 1009 hPa Calm     93% 0 mm 0 W/m2
01:14 20.5 °C 19.4 °C 1009 hPa Calm     93.5% 0 mm 0 W/m2
01:19 20.4 °C 19.4 °C 1009 hPa Calm     94% 0 mm 0 W/m2
01:24 20.4 °C 19.4 °C 1009 hPa Calm     94% 0 mm 0 W/m2
01:29 20.4 °C 19.4 °C 1008.7 hPa Calm     94% 0 mm 0 W/m2
01:34 20.3 °C 19.3 °C 1008.7 hPa Calm     94% 0 mm 0 W/m2
01:39 20.3 °C 19.3 °C 1008.7 hPa Calm     94% 0 mm 0 W/m2
01:44 20.3 °C 19.3 °C 1008.7 hPa Calm     94% 0 mm 0 W/m2
01:49 20.3 °C 19.3 °C 1008.7 hPa Calm     94% 0 mm 0 W/m2
01:54 20.2 °C 19.2 °C 1008.7 hPa Calm     94% 0 mm 0 W/m2
01:59 20.2 °C 19.2 °C 1008.7 hPa Calm     94% 0 mm 0 W/m2
02:04 20.1 °C 19.1 °C 1008.7 hPa Calm     94% 0 mm 0 W/m2
02:09 20.1 °C 19.1 °C 1008.7 hPa Calm     94% 0 mm 0 W/m2
02:14 20.1 °C 19.1 °C 1008.7 hPa Calm     94% 0 mm 0 W/m2
02:19 20.1 °C 19.1 °C 1008.7 hPa Calm     94% 0 mm 0 W/m2
02:24 20.1 °C 19.1 °C 1008.7 hPa Calm     94% 0 mm 0 W/m2
02:29 20.1 °C 19.1 °C 1008.7 hPa Calm     94% 0 mm 0 W/m2
02:34 20.1 °C 19.1 °C 1008.4 hPa Calm     94.2% 0 mm 0 W/m2
02:39 20.1 °C 19.2 °C 1008.4 hPa Calm     95% 0 mm 0 W/m2
02:44 20.1 °C 19.2 °C 1008.4 hPa Calm     95% 0 mm 0 W/m2
02:49 20.1 °C 19.3 °C 1008.7 hPa Calm     95% 0 mm 0 W/m2
02:54 20.1 °C 19.3 °C 1008.7 hPa Calm     95% 0 mm 0 W/m2
02:59 20.1 °C 19.3 °C 1008.4 hPa Calm     95% 0 mm 0 W/m2
03:04 20.1 °C 19.3 °C 1008.4 hPa Calm     95% 0 mm 0 W/m2
03:09 20.1 °C 19.3 °C 1008.4 hPa Calm     95% 0 mm 0 W/m2
03:14 20.2 °C 19.3 °C 1008.4 hPa Calm     95% 0 mm 0 W/m2
03:19 20.2 °C 19.3 °C 1008.4 hPa Calm     95% 0 mm 0 W/m2
03:24 20.2 °C 19.3 °C 1008.4 hPa Calm     95% 0 mm 0 W/m2
03:29 20.2 °C 19.3 °C 1008.4 hPa Calm     95% 0 mm 0 W/m2
03:34 20.2 °C 19.3 °C 1008.4 hPa Calm     95% 0 mm 0 W/m2
03:39 20.1 °C 19.3 °C 1008.4 hPa Calm     95% 0 mm 0 W/m2
03:44 20.1 °C 19.3 °C 1008.4 hPa Calm     95% 0 mm 0 W/m2
03:49 20.1 °C 19.2 °C 1008.4 hPa Calm     95% 0 mm 0 W/m2
03:54 20.1 °C 19.2 °C 1008.4 hPa Calm     95% 0 mm 0 W/m2
03:59 20.1 °C 19.2 °C 1008.4 hPa Calm     95% 0 mm 0 W/m2
04:00 20.1 °C 19.2 °C 1008.4 hPa Calm     95% 0 mm 0 W/m2
04:09 20.2 °C 19.3 °C 1008.4 hPa Calm     95% 0 mm 0 W/m2
04:14 20.2 °C 19.3 °C 1008.4 hPa Calm     95% 0 mm 0 W/m2
04:19 20.2 °C 19.3 °C 1008.4 hPa Calm     95% 0 mm 0 W/m2
04:24 20.2 °C 19.3 °C 1008.4 hPa Calm     95% 0 mm 0 W/m2
04:29 20.2 °C 19.3 °C 1008.4 hPa Calm     95% 0 mm 0 W/m2
04:34 20.2 °C 19.3 °C 1008.4 hPa Calm     95% 0 mm 0 W/m2
04:39 20.2 °C 19.4 °C 1008.4 hPa Calm   1.6 km/h 95% 0 mm 0 W/m2
04:44 20.2 °C 19.4 °C 1008.4 hPa Calm   1.6 km/h 95% 0 mm 0 W/m2
04:49 20.3 °C 19.4 °C 1008.4 hPa Calm   1.6 km/h 95% 0 mm 0 W/m2
04:54 20.3 °C 19.5 °C 1008.4 hPa Calm   1.6 km/h 95% 0 mm 0 W/m2
04:59 20.3 °C 19.5 °C 1008 hPa Calm   1.6 km/h 95% 0 mm 0 W/m2
05:04 20.4 °C 19.6 °C 1008 hPa Calm   1.6 km/h 95% 0 mm 0 W/m2
05:09 20.4 °C 19.6 °C 1008 hPa Calm     95% 0 mm 0 W/m2
05:14 20.4 °C 19.6 °C 1008 hPa Calm     95% 0 mm 0 W/m2
05:19 20.4 °C 19.6 °C 1008 hPa Calm     95% 0 mm 0 W/m2
05:24 20.4 °C 19.6 °C 1008 hPa Calm     95% 0 mm 0 W/m2
05:29 20.4 °C 19.6 °C 1008 hPa Calm     95% 0 mm 0 W/m2
05:34 20.4 °C 19.6 °C 1008 hPa Calm     95% 0 mm 0 W/m2
05:39 20.5 °C 19.7 °C 1008 hPa Calm     95% 0 mm 0 W/m2
05:44 20.5 °C 19.7 °C 1008.4 hPa Calm     95% 0 mm 0 W/m2
05:49 20.6 °C 19.7 °C 1008.4 hPa Calm     95% 0 mm 0 W/m2
05:54 20.6 °C 19.8 °C 1008.4 hPa Calm     95% 0 mm 5 W/m2
05:59 20.7 °C 19.8 °C 1008.4 hPa Calm     95% 0 mm 7 W/m2
06:04 20.7 °C 19.8 °C 1008.4 hPa Calm     95% 0 mm 9 W/m2
06:09 20.7 °C 19.9 °C 1008.4 hPa Calm     95% 0 mm 7 W/m2
06:14 20.7 °C 19.9 °C 1008.4 hPa Calm     95% 0 mm 9 W/m2
06:19 20.8 °C 19.9 °C 1008.4 hPa Calm     95% 0 mm 16 W/m2
06:24 20.8 °C 19.9 °C 1008.4 hPa Calm     95% 0 mm 25 W/m2
06:29 20.8 °C 20 °C 1008.4 hPa Calm     95% 0 mm 26 W/m2
06:34 20.8 °C 20 °C 1008.4 hPa Calm     95% 0 mm 25 W/m2
06:39 20.9 °C 20.1 °C 1008.7 hPa Calm     95% 0 mm 19 W/m2
06:44 20.9 °C 20.1 °C 1008.7 hPa Calm     95% 0 mm 19 W/m2
06:49 20.9 °C 20.1 °C 1008.4 hPa Calm     95% 0 mm 49 W/m2
06:54 20.9 °C 20.2 °C 1008.4 hPa Calm     95% 0 mm 79 W/m2
06:59 21.1 °C 20.3 °C 1008.4 hPa Calm     95% 0 mm 79 W/m2
07:04 21.2 °C 20.4 °C 1008.4 hPa Calm     95% 0 mm 132 W/m2
07:09 21.4 °C 20.6 °C 1008.4 hPa Calm     95% 0 mm 132 W/m2
07:14 21.6 °C 20.7 °C 1008.4 hPa Calm     95% 0 mm 76 W/m2
07:19 21.7 °C 20.9 °C 1008.7 hPa Calm     95% 0 mm 172 W/m2
07:24 21.9 °C 21.1 °C 1008.7 hPa Calm     95% 0 mm 183 W/m2
07:29 22.2 °C 21.3 °C 1008.4 hPa Calm     95% 0 mm 207 W/m2
07:34 22.5 °C 21.6 °C 1008.7 hPa Calm     94.3% 0 mm 220 W/m2
07:39 22.9 °C 21.8 °C 1008.4 hPa Calm     93.7% 0 mm 241 W/m2
07:44 23.2 °C 21.9 °C 1008.4 hPa Calm     92.4% 0 mm 262 W/m2
07:49 23.5 °C 21.8 °C 1008.4 hPa Calm   1.6 km/h 90.3% 0 mm 294 W/m2
07:54 23.9 °C 21.9 °C 1008.4 hPa Calm   1.6 km/h 88.9% 0 mm 329 W/m2
07:59 24.3 °C 22.1 °C 1008.4 hPa Calm   3.2 km/h 87.1% 0 mm 329 W/m2
08:00 24.5 °C 21.8 °C 1008.4 hPa Calm   3.2 km/h 85% 0 mm 120 W/m2
08:09 24.9 °C 22 °C 1008.4 hPa Calm     84% 0 mm 367 W/m2
08:14 25.2 °C 22.1 °C 1008.4 hPa Calm     82.9% 0 mm 399 W/m2
08:19 25.5 °C 22.2 °C 1008.4 hPa Calm   1.6 km/h 81.9% 0 mm 404 W/m2
08:24 25.8 °C 22.2 °C 1008.4 hPa Calm   1.6 km/h 80.4% 0 mm 425 W/m2
08:29 26.1 °C 22.3 °C 1008.4 hPa Calm   1.6 km/h 79.4% 0 mm 441 W/m2
08:34 26.4 °C 22.3 °C 1008.4 hPa Calm   1.6 km/h 78.1% 0 mm 457 W/m2
08:39 26.8 °C 22.3 °C 1008 hPa Calm     76.8% 0 mm 471 W/m2
08:44 26.9 °C 22.1 °C 1008 hPa Calm     75% 0 mm 483 W/m2
08:49 27 °C 22.3 °C 1008 hPa Calm     75.4% 0 mm 494 W/m2
08:54 27.3 °C 22.7 °C 1008 hPa Calm   1.6 km/h 75.9% 0 mm 510 W/m2
08:59 27.6 °C 22.8 °C 1008 hPa Calm   1.6 km/h 75.1% 0 mm 526 W/m2
09:04 27.9 °C 23.2 °C 1008 hPa Calm   1.6 km/h 75.3% 0 mm 538 W/m2
09:08 28.2 °C 23.1 °C 1008 hPa Calm     73.6% 0 mm 548 W/m2
Hartford County Weather
Compliments of Weather Underground - 2 mb